createdAt,value
2022-11-20T00:02:40.350Z,40.33
2022-11-20T00:05:43.239Z,43.42
2022-11-20T00:08:46.082Z,38.38
2022-11-20T00:11:49.071Z,36.70
2022-11-20T00:14:51.663Z,39.37
2022-11-20T00:17:54.563Z,39.13
2022-11-20T00:21:09.222Z,37.33
2022-11-20T00:24:12.283Z,40.25
2022-11-20T00:27:14.779Z,34.30
2022-11-20T00:30:17.806Z,39.13
2022-11-20T00:33:20.479Z,37.97
2022-11-20T00:36:25.735Z,41.95
2022-11-20T00:39:28.363Z,39.75
2022-11-20T00:42:33.810Z,35.33
2022-11-20T00:45:36.398Z,39.60
2022-11-20T00:48:39.352Z,38.67
2022-11-20T00:51:41.911Z,38.97
2022-11-20T00:54:44.854Z,40.75
2022-11-20T00:57:47.376Z,39.63
2022-11-20T01:00:50.872Z,37.43
2022-11-20T01:03:55.429Z,36.07
2022-11-20T01:06:58.380Z,40.40
2022-11-20T01:10:00.997Z,38.55
2022-11-20T01:13:25.664Z,36.53
2022-11-20T01:16:32.802Z,35.50
2022-11-20T01:19:35.728Z,37.13
2022-11-20T01:22:38.286Z,38.83
2022-11-20T01:25:41.217Z,36.60
2022-11-20T01:28:44.128Z,35.15
2022-11-20T01:31:47.170Z,38.83
2022-11-20T01:34:49.678Z,35.60
2022-11-20T01:37:52.636Z,36.00
2022-11-20T01:40:57.619Z,32.35
2022-11-20T01:44:01.425Z,36.97
2022-11-20T01:47:06.262Z,33.03
2022-11-20T01:50:17.969Z,36.05
2022-11-20T01:53:25.143Z,42.67
2022-11-20T01:56:29.942Z,41.63
2022-11-20T01:59:32.734Z,39.67
2022-11-20T02:02:37.622Z,42.30
2022-11-20T02:05:48.957Z,43.30
2022-11-20T02:08:52.946Z,40.10
2022-11-20T02:11:57.144Z,44.95
2022-11-20T02:14:59.822Z,40.60
2022-11-20T02:18:02.739Z,43.20
2022-11-20T02:21:14.464Z,40.67
2022-11-20T02:24:19.758Z,40.70
2022-11-20T02:27:23.500Z,40.08
2022-11-20T02:30:26.354Z,37.42
2022-11-20T02:33:28.962Z,31.13
2022-11-20T02:36:35.065Z,37.47
2022-11-20T02:39:37.756Z,29.55
2022-11-20T02:42:41.344Z,30.83
2022-11-20T02:45:44.301Z,30.88
2022-11-20T02:48:47.129Z,28.90
2022-11-20T02:51:50.826Z,29.13
2022-11-20T02:54:54.394Z,25.80
2022-11-20T02:57:57.857Z,24.35
2022-11-20T03:01:01.213Z,26.80
2022-11-20T03:04:04.069Z,24.80
2022-11-20T03:07:07.131Z,25.10
2022-11-20T03:10:10.078Z,26.25
2022-11-20T03:13:12.976Z,25.85
2022-11-20T03:16:20.882Z,24.48
2022-11-20T03:19:24.155Z,24.43
2022-11-20T03:22:26.840Z,30.03
2022-11-20T03:25:29.848Z,28.08
2022-11-20T03:28:32.474Z,27.10
2022-11-20T03:31:43.810Z,33.85
2022-11-20T03:34:46.347Z,28.20
2022-11-20T03:37:49.663Z,28.43
2022-11-20T03:40:52.266Z,27.05
2022-11-20T03:43:57.929Z,31.50
2022-11-20T03:47:00.480Z,30.83
2022-11-20T03:50:04.211Z,24.13
2022-11-20T03:53:06.834Z,29.60
2022-11-20T03:56:11.331Z,26.67
2022-11-20T03:59:14.042Z,24.45
2022-11-20T04:02:16.879Z,27.67
2022-11-20T04:05:19.894Z,29.77
2022-11-20T04:08:22.560Z,28.23
2022-11-20T04:11:31.440Z,30.30
2022-11-20T04:14:34.042Z,26.15
2022-11-20T04:17:37.115Z,29.52
2022-11-20T04:20:39.757Z,24.70
2022-11-20T04:23:42.638Z,27.70
2022-11-20T04:26:45.207Z,29.67
2022-11-20T04:29:48.140Z,32.97
2022-11-20T04:32:50.694Z,33.03
2022-11-20T04:35:53.613Z,36.67
2022-11-20T04:39:01.298Z,34.05
2022-11-20T04:42:23.131Z,32.17
2022-11-20T04:45:25.731Z,34.35
2022-11-20T04:48:30.397Z,35.83
2022-11-20T04:51:33.942Z,30.70
2022-11-20T04:54:36.845Z,34.10
2022-11-20T04:57:39.403Z,36.50
2022-11-20T05:00:42.421Z,33.08
2022-11-20T05:03:46.099Z,30.73
2022-11-20T05:06:49.259Z,32.93
2022-11-20T05:09:51.810Z,32.00
2022-11-20T05:12:54.888Z,35.38
2022-11-20T05:16:03.372Z,32.88
2022-11-20T05:19:06.246Z,30.55
2022-11-20T05:22:08.784Z,32.20
2022-11-20T05:25:12.881Z,32.17
2022-11-20T05:28:15.399Z,30.23
2022-11-20T05:31:28.162Z,30.30
2022-11-20T05:34:31.129Z,31.15
2022-11-20T05:37:34.142Z,28.73
2022-11-20T05:40:37.302Z,32.20
2022-11-20T05:43:41.731Z,28.15
2022-11-20T05:46:44.325Z,30.10
2022-11-20T05:49:47.300Z,25.15
2022-11-20T05:52:50.880Z,29.83
2022-11-20T05:56:02.133Z,28.00
2022-11-20T05:59:04.733Z,28.48
2022-11-20T06:02:07.608Z,29.98
2022-11-20T06:05:10.544Z,31.33
2022-11-20T06:08:13.265Z,31.73
2022-11-20T06:11:17.566Z,24.10
2022-11-20T06:14:20.245Z,32.47
2022-11-20T06:17:23.113Z,39.55
2022-11-20T06:20:25.735Z,35.10
2022-11-20T06:23:30.455Z,45.53
2022-11-20T06:26:33.136Z,49.07
2022-11-20T06:29:36.144Z,34.25
2022-11-20T06:32:38.771Z,35.58
2022-11-20T06:35:41.717Z,51.88
2022-11-20T06:38:44.562Z,44.90
2022-11-20T06:41:47.651Z,47.85
2022-11-20T06:44:50.225Z,37.85
2022-11-20T06:47:53.236Z,36.63
2022-11-20T06:50:56.402Z,36.03
2022-11-20T06:53:59.307Z,33.87
2022-11-20T06:57:02.015Z,35.43
2022-11-20T07:00:05.436Z,34.65
2022-11-20T07:03:10.112Z,33.13
2022-11-20T07:06:12.991Z,31.42
2022-11-20T07:09:15.859Z,35.40
2022-11-20T07:12:18.770Z,40.07
2022-11-20T07:15:23.495Z,36.60
2022-11-20T07:18:26.349Z,32.40
2022-11-20T07:21:29.007Z,37.20
2022-11-20T07:24:31.887Z,35.43
2022-11-20T07:27:34.569Z,33.87
2022-11-20T07:30:37.603Z,37.47
2022-11-20T07:33:40.434Z,36.55
2022-11-20T07:36:43.357Z,32.25
2022-11-20T07:39:46.119Z,38.83
2022-11-20T07:42:56.359Z,39.80
2022-11-20T07:46:01.181Z,41.80
2022-11-20T07:49:05.811Z,38.55
2022-11-20T07:52:10.541Z,34.30
2022-11-20T07:55:16.440Z,34.63
2022-11-20T07:58:21.249Z,38.33
2022-11-20T08:01:24.132Z,34.08
2022-11-20T08:04:27.121Z,33.83
2022-11-20T08:07:29.703Z,31.15
2022-11-20T08:10:32.926Z,30.33
2022-11-20T08:13:54.291Z,35.33
2022-11-20T08:16:57.531Z,33.72
2022-11-20T08:20:00.256Z,32.25
2022-11-20T08:23:06.517Z,28.05
2022-11-20T08:26:09.168Z,32.23
2022-11-20T08:29:12.287Z,27.33
2022-11-20T08:32:14.938Z,31.77
2022-11-20T08:35:17.971Z,26.15
2022-11-20T08:38:20.586Z,35.85
2022-11-20T08:41:27.840Z,30.43
2022-11-20T08:44:30.420Z,32.97
2022-11-20T08:47:33.352Z,29.85
2022-11-20T08:50:37.391Z,31.73
2022-11-20T08:53:41.346Z,31.23
2022-11-20T08:56:43.905Z,34.17
2022-11-20T09:03:09.856Z,34.08
2022-11-20T09:06:13.540Z,34.20
2022-11-20T09:09:16.100Z,33.47
2022-11-20T09:12:19.450Z,31.83
2022-11-20T09:15:22.760Z,34.07
2022-11-20T09:18:26.876Z,30.77
2022-11-20T09:21:30.089Z,34.65
2022-11-20T09:24:33.012Z,33.00
2022-11-20T09:27:36.778Z,36.40
2022-11-20T09:30:39.774Z,35.97
2022-11-20T09:33:42.458Z,35.95
2022-11-20T09:36:46.286Z,31.17
2022-11-20T09:39:48.871Z,36.13
2022-11-20T09:43:07.425Z,31.63
2022-11-20T09:46:13.008Z,34.93
2022-11-20T09:49:33.716Z,33.60
2022-11-20T09:52:48.636Z,39.30
2022-11-20T09:55:52.301Z,38.88
2022-11-20T09:59:03.410Z,36.00
2022-11-20T10:02:31.858Z,34.47
2022-11-20T10:05:48.321Z,34.33
2022-11-20T10:09:08.110Z,33.22
2022-11-20T10:12:22.951Z,37.08
2022-11-20T10:15:37.302Z,37.10
2022-11-20T10:18:46.443Z,35.10
2022-11-20T10:21:58.046Z,35.45
2022-11-20T10:25:19.365Z,34.97
2022-11-20T10:28:41.077Z,37.85
2022-11-20T10:31:48.149Z,33.10
2022-11-20T10:35:26.828Z,34.07
2022-11-20T10:38:44.304Z,35.38
2022-11-20T10:41:52.079Z,34.83
2022-11-20T10:45:14.733Z,34.92
2022-11-20T10:48:28.662Z,35.47
2022-11-20T10:51:50.748Z,41.70
2022-11-20T10:55:07.267Z,42.90
2022-11-20T10:58:32.956Z,39.20
2022-11-20T11:01:42.917Z,33.13
2022-11-20T11:04:54.730Z,31.20
2022-11-20T11:07:59.811Z,19.57
2022-11-20T11:11:19.511Z,34.67
2022-11-20T11:14:22.133Z,26.30
2022-11-20T11:17:33.504Z,30.92
2022-11-20T11:20:36.080Z,31.43
2022-11-20T11:23:44.290Z,32.07
2022-11-20T11:27:12.381Z,34.40
2022-11-20T11:30:21.177Z,31.65
2022-11-20T11:33:35.020Z,33.22
2022-11-20T11:36:38.153Z,36.90
2022-11-20T11:39:43.263Z,39.00
2022-11-20T11:42:55.141Z,32.22
2022-11-20T11:45:58.311Z,37.60
2022-11-20T11:49:10.370Z,38.03
2022-11-20T11:52:17.549Z,34.37
2022-11-20T11:55:29.062Z,34.90
2022-11-20T11:58:53.247Z,34.67
2022-11-20T12:02:02.441Z,37.08
2022-11-20T12:05:44.716Z,38.60
2022-11-20T12:08:49.933Z,31.53
2022-11-20T12:12:04.674Z,35.00
2022-11-20T12:15:14.108Z,36.75
2022-11-20T12:18:21.273Z,36.15
2022-11-20T12:21:24.055Z,39.70
2022-11-20T12:24:42.206Z,39.50
2022-11-20T12:27:51.385Z,39.10
2022-11-20T12:31:32.137Z,38.88
2022-11-20T12:35:00.557Z,38.40
2022-11-20T12:38:18.977Z,36.30
2022-11-20T12:42:00.192Z,36.50
2022-11-20T12:45:28.037Z,40.27
2022-11-20T12:48:46.791Z,37.60
2022-11-20T12:52:21.064Z,38.65
2022-11-20T12:55:42.458Z,35.17
2022-11-20T12:59:21.452Z,38.53
2022-11-20T13:02:39.063Z,36.43
2022-11-20T13:05:45.611Z,36.35
2022-11-20T13:08:55.805Z,35.47
2022-11-20T13:12:15.687Z,32.28
2022-11-20T13:15:54.207Z,36.67
2022-11-20T13:18:57.737Z,32.95
2022-11-20T13:22:00.562Z,33.35
2022-11-20T13:25:04.093Z,33.45
2022-11-20T13:28:30.809Z,35.23
2022-11-20T13:31:36.513Z,33.23
2022-11-20T13:34:40.692Z,34.00
2022-11-20T13:37:45.250Z,34.78
2022-11-20T13:40:56.180Z,32.38
2022-11-20T13:44:09.124Z,39.67
2022-11-20T13:47:27.516Z,39.37
2022-11-20T13:50:50.712Z,44.38
2022-11-20T13:54:22.717Z,32.95
2022-11-20T13:57:51.504Z,35.45
2022-11-20T14:01:11.149Z,44.50
2022-11-20T14:04:28.041Z,35.57
2022-11-20T14:07:42.597Z,38.65
2022-11-20T14:10:46.204Z,30.85
2022-11-20T14:14:06.420Z,34.47
2022-11-20T14:17:19.399Z,35.97
2022-11-20T14:20:27.033Z,33.43
2022-11-20T14:23:30.944Z,36.88
2022-11-20T14:26:37.533Z,34.00
2022-11-20T14:29:42.143Z,36.75
2022-11-20T14:32:47.551Z,37.10
2022-11-20T14:35:56.602Z,34.40
2022-11-20T14:38:59.540Z,35.53
2022-11-20T14:42:04.463Z,36.75
2022-11-20T14:45:13.279Z,37.50
2022-11-20T14:48:17.089Z,37.77
2022-11-20T14:51:48.014Z,34.63
2022-11-20T14:54:53.605Z,34.53
2022-11-20T14:57:58.619Z,35.28
2022-11-20T15:01:08.136Z,41.22
2022-11-20T15:04:13.070Z,37.10
2022-11-20T15:07:31.547Z,40.90
2022-11-20T15:10:34.427Z,38.28
2022-11-20T15:13:40.751Z,42.22
2022-11-20T15:16:43.460Z,35.65
2022-11-20T15:19:46.688Z,37.13
2022-11-20T15:22:49.385Z,41.53
2022-11-20T15:25:52.597Z,39.50
2022-11-20T15:28:55.920Z,42.10
2022-11-20T15:31:59.883Z,44.35
2022-11-20T15:35:03.015Z,40.73
2022-11-20T15:38:06.493Z,41.57
2022-11-20T15:41:09.831Z,49.33
2022-11-20T15:44:13.283Z,46.58
2022-11-20T15:47:16.394Z,44.85
2022-11-20T15:50:19.929Z,54.53
2022-11-20T15:53:23.203Z,61.23
2022-11-20T15:56:27.699Z,104.30
2022-11-20T15:59:30.914Z,118.70
2022-11-20T16:02:34.258Z,160.65
2022-11-20T16:05:37.648Z,68.33
2022-11-20T16:08:40.614Z,48.20
2022-11-20T16:11:43.975Z,47.30
2022-11-20T16:15:08.229Z,51.15
2022-11-20T16:18:25.158Z,55.12
2022-11-20T16:21:32.709Z,55.53
2022-11-20T16:24:36.154Z,50.20
2022-11-20T16:27:39.832Z,62.13
2022-11-20T16:30:43.807Z,69.60
2022-11-20T16:33:54.328Z,80.50
2022-11-20T16:36:57.363Z,74.83
2022-11-20T16:40:01.367Z,110.10
2022-11-20T16:43:15.668Z,96.72
2022-11-20T16:46:20.750Z,216.60
2022-11-20T16:49:26.046Z,107.87
2022-11-20T16:52:33.271Z,123.70
2022-11-20T16:55:37.516Z,98.03
2022-11-20T16:58:40.680Z,94.00
2022-11-20T17:01:45.254Z,110.05
2022-11-20T17:08:10.003Z,134.13
2022-11-20T17:11:15.383Z,109.57
2022-11-20T17:14:18.894Z,122.00
2022-11-20T17:17:21.608Z,115.62
2022-11-20T17:20:25.037Z,120.87
2022-11-20T17:23:33.235Z,128.90
2022-11-20T17:26:38.853Z,183.93
2022-11-20T17:29:42.384Z,151.43
2022-11-20T17:32:47.625Z,122.90
2022-11-20T17:35:50.698Z,112.85
2022-11-20T17:38:54.080Z,110.33
2022-11-20T17:42:16.105Z,110.30
2022-11-20T17:45:19.518Z,110.78
2022-11-20T17:48:22.986Z,111.72
2022-11-20T17:51:28.449Z,129.23
2022-11-20T17:54:33.284Z,122.27
2022-11-20T17:57:56.880Z,119.97
2022-11-20T18:01:06.485Z,134.48
2022-11-20T18:04:11.243Z,116.18
2022-11-20T18:07:14.352Z,120.78
2022-11-20T18:10:17.952Z,120.23
2022-11-20T18:13:21.193Z,120.60
2022-11-20T18:16:27.638Z,109.82
2022-11-20T18:19:42.720Z,112.70
2022-11-20T18:22:54.473Z,114.72
2022-11-20T18:26:01.195Z,114.10
2022-11-20T18:29:07.405Z,97.57
2022-11-20T18:32:10.734Z,134.65
2022-11-20T18:35:14.309Z,93.12
2022-11-20T18:38:18.038Z,99.10
2022-11-20T18:41:44.051Z,91.33
2022-11-20T18:44:53.368Z,89.87
2022-11-20T18:47:56.942Z,69.18
2022-11-20T18:51:09.356Z,65.82
2022-11-20T18:54:13.558Z,60.17
2022-11-20T18:57:21.571Z,62.08
2022-11-20T19:00:25.411Z,79.30
2022-11-20T19:03:28.764Z,67.22
2022-11-20T19:06:32.339Z,68.23
2022-11-20T19:09:35.837Z,75.43
2022-11-20T19:12:39.311Z,81.87
2022-11-20T19:15:42.574Z,75.60
2022-11-20T19:18:46.333Z,84.28
2022-11-20T19:21:50.954Z,74.27
2022-11-20T19:24:54.415Z,77.68
2022-11-20T19:27:57.803Z,78.78
2022-11-20T19:31:09.521Z,82.05
2022-11-20T19:34:12.722Z,75.63
2022-11-20T19:37:16.112Z,74.43
2022-11-20T19:40:19.312Z,72.93
2022-11-20T19:43:22.791Z,76.00
2022-11-20T19:46:27.098Z,81.30
2022-11-20T19:49:30.530Z,74.07
2022-11-20T19:52:34.603Z,117.85
2022-11-20T19:55:39.451Z,140.02
2022-11-20T19:58:43.149Z,140.30
2022-11-20T20:01:47.403Z,146.95
2022-11-20T20:04:50.553Z,106.13
2022-11-20T20:07:53.656Z,89.93
2022-11-20T20:10:59.606Z,80.38
2022-11-20T20:14:08.906Z,79.05
2022-11-20T20:17:13.176Z,70.45
2022-11-20T20:20:19.150Z,74.80
2022-11-20T20:23:23.707Z,86.28
2022-11-20T20:26:28.813Z,82.03
2022-11-20T20:29:32.830Z,77.55
2022-11-20T20:32:36.781Z,63.73
2022-11-20T20:35:43.507Z,62.28
2022-11-20T20:38:47.024Z,68.75
2022-11-20T20:41:50.799Z,64.30
2022-11-20T20:45:08.612Z,69.07
2022-11-20T20:48:15.077Z,67.40
2022-11-20T20:51:18.125Z,60.15
2022-11-20T20:54:21.794Z,67.37
2022-11-20T20:57:25.617Z,69.75
2022-11-20T21:00:29.979Z,65.80
2022-11-20T21:03:34.619Z,71.10
2022-11-20T21:06:38.050Z,72.75
2022-11-20T21:09:41.141Z,70.75
2022-11-20T21:12:44.132Z,68.93
2022-11-20T21:15:51.593Z,65.97
2022-11-20T21:18:56.633Z,65.80
2022-11-20T21:21:59.484Z,69.45
2022-11-20T21:25:02.390Z,77.85
2022-11-20T21:28:05.067Z,79.70
2022-11-20T21:31:09.288Z,76.72
2022-11-20T21:34:13.340Z,71.87
2022-11-20T21:37:16.532Z,74.22
2022-11-20T21:40:19.117Z,69.40
2022-11-20T21:43:22.549Z,77.95
2022-11-20T21:46:25.352Z,75.75
2022-11-20T21:49:28.353Z,80.62
2022-11-20T21:52:30.957Z,86.90
2022-11-20T21:55:33.936Z,74.87
2022-11-20T21:58:38.008Z,79.28
2022-11-20T22:01:41.811Z,81.07
2022-11-20T22:04:44.831Z,95.75
2022-11-20T22:07:47.384Z,103.47
2022-11-20T22:10:56.845Z,94.13
2022-11-20T22:14:18.175Z,83.03
2022-11-20T22:17:41.022Z,81.53
2022-11-20T22:20:43.753Z,79.28
2022-11-20T22:23:46.865Z,81.27
2022-11-20T22:26:49.989Z,74.40
2022-11-20T22:29:52.940Z,71.10
2022-11-20T22:32:56.574Z,68.30
2022-11-20T22:36:02.915Z,64.05
2022-11-20T22:39:06.177Z,63.05
2022-11-20T22:42:09.099Z,68.05
2022-11-20T22:45:12.197Z,61.88
2022-11-20T22:48:15.134Z,61.40
2022-11-20T22:51:20.401Z,58.97
2022-11-20T22:54:23.437Z,61.35
2022-11-20T22:57:26.128Z,54.53
2022-11-20T23:00:29.097Z,56.13
2022-11-20T23:03:31.771Z,54.43
2022-11-20T23:06:34.963Z,52.25
2022-11-20T23:09:37.526Z,52.70
2022-11-20T23:12:40.747Z,62.30
2022-11-20T23:15:44.575Z,49.00
2022-11-20T23:18:48.721Z,60.65
2022-11-20T23:21:51.359Z,59.78
2022-11-20T23:24:54.297Z,62.95
2022-11-20T23:27:56.853Z,59.77
2022-11-20T23:30:59.967Z,57.50
2022-11-20T23:34:02.765Z,69.65
2022-11-20T23:37:05.663Z,65.40
2022-11-20T23:40:08.592Z,59.58
2022-11-20T23:43:17.373Z,68.32
2022-11-20T23:46:20.029Z,65.32
2022-11-20T23:49:22.942Z,63.28
2022-11-20T23:52:26.588Z,55.80
2022-11-20T23:55:29.771Z,60.08
2022-11-20T23:58:35.567Z,67.97
